sensor_id;sensor_type;location;lat;lon;timestamp;P1;durP1;ratioP1;P2;durP2;ratioP2
30874;SDS011;17581;43.222;27.924;2024-02-28T00:02:09;26.20;;;9.10;;
30874;SDS011;17581;43.222;27.924;2024-02-28T00:04:34;35.75;;;9.07;;
30874;SDS011;17581;43.222;27.924;2024-02-28T00:07:00;28.95;;;9.38;;
30874;SDS011;17581;43.222;27.924;2024-02-28T00:09:25;25.23;;;9.48;;
30874;SDS011;17581;43.222;27.924;2024-02-28T00:11:51;34.20;;;8.35;;
30874;SDS011;17581;43.222;27.924;2024-02-28T00:14:16;19.50;;;7.90;;
30874;SDS011;17581;43.222;27.924;2024-02-28T00:16:42;13.95;;;8.10;;
30874;SDS011;17581;43.222;27.924;2024-02-28T00:19:09;39.67;;;9.93;;
30874;SDS011;17581;43.222;27.924;2024-02-28T00:21:36;26.20;;;9.00;;
30874;SDS011;17581;43.222;27.924;2024-02-28T00:24:02;19.20;;;7.68;;
30874;SDS011;17581;43.222;27.924;2024-02-28T00:26:27;22.33;;;10.15;;
30874;SDS011;17581;43.222;27.924;2024-02-28T00:28:53;25.60;;;10.10;;
30874;SDS011;17581;43.222;27.924;2024-02-28T00:31:18;30.42;;;9.38;;
30874;SDS011;17581;43.222;27.924;2024-02-28T00:33:44;18.77;;;8.63;;
30874;SDS011;17581;43.222;27.924;2024-02-28T00:36:09;20.25;;;8.50;;
30874;SDS011;17581;43.222;27.924;2024-02-28T00:38:35;23.75;;;8.77;;
30874;SDS011;17581;43.222;27.924;2024-02-28T00:41:00;24.50;;;8.02;;
30874;SDS011;17581;43.222;27.924;2024-02-28T00:43:26;28.02;;;8.68;;
30874;SDS011;17581;43.222;27.924;2024-02-28T00:45:51;25.60;;;8.88;;
30874;SDS011;17581;43.222;27.924;2024-02-28T00:48:16;29.60;;;8.40;;
30874;SDS011;17581;43.222;27.924;2024-02-28T00:50:42;30.15;;;9.75;;
30874;SDS011;17581;43.222;27.924;2024-02-28T00:53:07;26.02;;;9.25;;
30874;SDS011;17581;43.222;27.924;2024-02-28T00:55:33;25.67;;;8.27;;
30874;SDS011;17581;43.222;27.924;2024-02-28T00:57:58;21.95;;;8.07;;
30874;SDS011;17581;43.222;27.924;2024-02-28T01:00:24;30.10;;;8.88;;
30874;SDS011;17581;43.222;27.924;2024-02-28T01:02:49;27.85;;;9.70;;
30874;SDS011;17581;43.222;27.924;2024-02-28T01:05:15;20.92;;;8.15;;
30874;SDS011;17581;43.222;27.924;2024-02-28T01:07:40;32.13;;;8.40;;
30874;SDS011;17581;43.222;27.924;2024-02-28T01:10:06;19.02;;;8.00;;
30874;SDS011;17581;43.222;27.924;2024-02-28T01:12:32;21.40;;;8.80;;
30874;SDS011;17581;43.222;27.924;2024-02-28T01:14:57;19.48;;;8.45;;
30874;SDS011;17581;43.222;27.924;2024-02-28T01:17:22;23.00;;;8.57;;
30874;SDS011;17581;43.222;27.924;2024-02-28T01:19:48;22.83;;;8.80;;
30874;SDS011;17581;43.222;27.924;2024-02-28T01:22:14;26.08;;;9.77;;
30874;SDS011;17581;43.222;27.924;2024-02-28T01:24:39;26.90;;;9.25;;
30874;SDS011;17581;43.222;27.924;2024-02-28T01:27:04;30.48;;;9.02;;
30874;SDS011;17581;43.222;27.924;2024-02-28T01:29:30;20.08;;;8.35;;
30874;SDS011;17581;43.222;27.924;2024-02-28T01:31:55;23.10;;;9.20;;
30874;SDS011;17581;43.222;27.924;2024-02-28T01:34:21;20.67;;;8.18;;
30874;SDS011;17581;43.222;27.924;2024-02-28T01:36:48;22.33;;;8.73;;
30874;SDS011;17581;43.222;27.924;2024-02-28T01:39:13;19.02;;;8.75;;
30874;SDS011;17581;43.222;27.924;2024-02-28T01:41:39;33.72;;;9.00;;
30874;SDS011;17581;43.222;27.924;2024-02-28T01:44:04;27.70;;;10.10;;
30874;SDS011;17581;43.222;27.924;2024-02-28T01:46:30;23.92;;;8.85;;
30874;SDS011;17581;43.222;27.924;2024-02-28T01:48:56;23.52;;;9.77;;
30874;SDS011;17581;43.222;27.924;2024-02-28T01:51:23;25.65;;;8.73;;
30874;SDS011;17581;43.222;27.924;2024-02-28T01:53:51;23.73;;;10.32;;
30874;SDS011;17581;43.222;27.924;2024-02-28T01:56:17;24.92;;;9.75;;
30874;SDS011;17581;43.222;27.924;2024-02-28T01:58:47;29.90;;;9.93;;
30874;SDS011;17581;43.222;27.924;2024-02-28T02:01:14;21.50;;;9.77;;
30874;SDS011;17581;43.222;27.924;2024-02-28T02:03:42;26.70;;;9.80;;
30874;SDS011;17581;43.222;27.924;2024-02-28T02:06:08;37.05;;;10.68;;
30874;SDS011;17581;43.222;27.924;2024-02-28T02:08:34;26.80;;;11.20;;
30874;SDS011;17581;43.222;27.924;2024-02-28T02:10:59;20.13;;;10.32;;
30874;SDS011;17581;43.222;27.924;2024-02-28T02:13:25;31.70;;;9.90;;
30874;SDS011;17581;43.222;27.924;2024-02-28T02:15:51;29.75;;;10.63;;
30874;SDS011;17581;43.222;27.924;2024-02-28T02:18:16;20.88;;;9.73;;
30874;SDS011;17581;43.222;27.924;2024-02-28T02:20:43;22.90;;;9.50;;
30874;SDS011;17581;43.222;27.924;2024-02-28T02:23:11;27.27;;;10.05;;
30874;SDS011;17581;43.222;27.924;2024-02-28T02:25:44;38.58;;;10.50;;
30874;SDS011;17581;43.222;27.924;2024-02-28T02:28:13;22.52;;;9.63;;
30874;SDS011;17581;43.222;27.924;2024-02-28T02:30:39;32.92;;;9.80;;
30874;SDS011;17581;43.222;27.924;2024-02-28T02:33:06;25.65;;;10.57;;
30874;SDS011;17581;43.222;27.924;2024-02-28T02:35:33;34.08;;;10.57;;
30874;SDS011;17581;43.222;27.924;2024-02-28T02:37:59;20.52;;;9.27;;
30874;SDS011;17581;43.222;27.924;2024-02-28T02:40:25;27.05;;;10.18;;
30874;SDS011;17581;43.222;27.924;2024-02-28T02:42:50;30.48;;;11.65;;
30874;SDS011;17581;43.222;27.924;2024-02-28T02:45:16;31.40;;;11.40;;
30874;SDS011;17581;43.222;27.924;2024-02-28T02:47:41;34.28;;;10.75;;
30874;SDS011;17581;43.222;27.924;2024-02-28T02:50:09;27.67;;;11.48;;
30874;SDS011;17581;43.222;27.924;2024-02-28T02:52:35;35.15;;;11.48;;
30874;SDS011;17581;43.222;27.924;2024-02-28T02:55:00;21.73;;;8.77;;
30874;SDS011;17581;43.222;27.924;2024-02-28T02:57:25;25.02;;;10.60;;
30874;SDS011;17581;43.222;27.924;2024-02-28T02:59:51;31.40;;;11.40;;
30874;SDS011;17581;43.222;27.924;2024-02-28T03:02:16;27.20;;;9.65;;
30874;SDS011;17581;43.222;27.924;2024-02-28T03:04:42;26.70;;;10.55;;
30874;SDS011;17581;43.222;27.924;2024-02-28T03:07:07;33.95;;;11.30;;
30874;SDS011;17581;43.222;27.924;2024-02-28T03:09:32;25.58;;;10.90;;
30874;SDS011;17581;43.222;27.924;2024-02-28T03:11:58;23.95;;;11.02;;
30874;SDS011;17581;43.222;27.924;2024-02-28T03:14:25;33.65;;;10.88;;
30874;SDS011;17581;43.222;27.924;2024-02-28T03:16:52;32.92;;;11.15;;
30874;SDS011;17581;43.222;27.924;2024-02-28T03:19:18;29.65;;;10.23;;
30874;SDS011;17581;43.222;27.924;2024-02-28T03:21:44;28.00;;;10.70;;
30874;SDS011;17581;43.222;27.924;2024-02-28T03:24:09;36.15;;;12.60;;
30874;SDS011;17581;43.222;27.924;2024-02-28T03:26:34;38.75;;;11.88;;
30874;SDS011;17581;43.222;27.924;2024-02-28T03:29:00;24.20;;;10.30;;
30874;SDS011;17581;43.222;27.924;2024-02-28T03:31:26;29.00;;;11.60;;
30874;SDS011;17581;43.222;27.924;2024-02-28T03:33:51;29.83;;;10.48;;
30874;SDS011;17581;43.222;27.924;2024-02-28T03:36:17;28.45;;;11.35;;
30874;SDS011;17581;43.222;27.924;2024-02-28T03:38:42;38.78;;;13.93;;
30874;SDS011;17581;43.222;27.924;2024-02-28T03:41:08;37.35;;;11.65;;
30874;SDS011;17581;43.222;27.924;2024-02-28T03:43:34;38.05;;;11.30;;
30874;SDS011;17581;43.222;27.924;2024-02-28T03:45:59;25.10;;;10.50;;
30874;SDS011;17581;43.222;27.924;2024-02-28T03:48:25;48.22;;;11.55;;
30874;SDS011;17581;43.222;27.924;2024-02-28T03:50:50;40.03;;;11.35;;
30874;SDS011;17581;43.222;27.924;2024-02-28T03:53:16;32.38;;;10.00;;
30874;SDS011;17581;43.222;27.924;2024-02-28T03:55:41;30.23;;;10.07;;
30874;SDS011;17581;43.222;27.924;2024-02-28T03:58:09;31.58;;;10.57;;
30874;SDS011;17581;43.222;27.924;2024-02-28T04:00:35;26.45;;;11.13;;
30874;SDS011;17581;43.222;27.924;2024-02-28T04:03:01;33.90;;;11.77;;
30874;SDS011;17581;43.222;27.924;2024-02-28T04:05:26;24.33;;;10.30;;
30874;SDS011;17581;43.222;27.924;2024-02-28T04:07:52;27.73;;;10.85;;
30874;SDS011;17581;43.222;27.924;2024-02-28T04:10:17;25.23;;;10.68;;
30874;SDS011;17581;43.222;27.924;2024-02-28T04:12:43;31.15;;;11.43;;
30874;SDS011;17581;43.222;27.924;2024-02-28T04:15:10;31.25;;;11.57;;
30874;SDS011;17581;43.222;27.924;2024-02-28T04:17:37;32.22;;;12.93;;
30874;SDS011;17581;43.222;27.924;2024-02-28T04:20:03;39.63;;;11.38;;
30874;SDS011;17581;43.222;27.924;2024-02-28T04:22:29;37.53;;;10.90;;
30874;SDS011;17581;43.222;27.924;2024-02-28T04:24:56;24.73;;;10.55;;
30874;SDS011;17581;43.222;27.924;2024-02-28T04:27:21;37.58;;;11.70;;
30874;SDS011;17581;43.222;27.924;2024-02-28T04:29:47;20.38;;;10.23;;
30874;SDS011;17581;43.222;27.924;2024-02-28T04:32:12;28.60;;;11.20;;
30874;SDS011;17581;43.222;27.924;2024-02-28T04:34:38;29.52;;;11.65;;
30874;SDS011;17581;43.222;27.924;2024-02-28T04:37:03;31.67;;;11.25;;
30874;SDS011;17581;43.222;27.924;2024-02-28T04:39:29;33.03;;;12.05;;
30874;SDS011;17581;43.222;27.924;2024-02-28T04:41:54;36.17;;;12.65;;
30874;SDS011;17581;43.222;27.924;2024-02-28T04:44:20;42.15;;;12.50;;
30874;SDS011;17581;43.222;27.924;2024-02-28T04:46:45;24.60;;;11.63;;
30874;SDS011;17581;43.222;27.924;2024-02-28T04:49:11;34.60;;;11.82;;
30874;SDS011;17581;43.222;27.924;2024-02-28T04:51:36;46.40;;;12.85;;
30874;SDS011;17581;43.222;27.924;2024-02-28T04:54:02;44.40;;;13.25;;
30874;SDS011;17581;43.222;27.924;2024-02-28T04:56:27;43.85;;;12.57;;
30874;SDS011;17581;43.222;27.924;2024-02-28T04:58:53;46.25;;;14.80;;
30874;SDS011;17581;43.222;27.924;2024-02-28T05:01:18;65.70;;;15.73;;
30874;SDS011;17581;43.222;27.924;2024-02-28T05:03:43;51.80;;;14.00;;
30874;SDS011;17581;43.222;27.924;2024-02-28T05:06:09;46.00;;;13.38;;
30874;SDS011;17581;43.222;27.924;2024-02-28T05:08:37;54.38;;;14.45;;
30874;SDS011;17581;43.222;27.924;2024-02-28T05:11:03;36.28;;;13.23;;
30874;SDS011;17581;43.222;27.924;2024-02-28T05:13:28;47.60;;;13.95;;
30874;SDS011;17581;43.222;27.924;2024-02-28T05:15:54;66.55;;;16.10;;
30874;SDS011;17581;43.222;27.924;2024-02-28T05:18:19;63.10;;;15.68;;
30874;SDS011;17581;43.222;27.924;2024-02-28T05:20:45;68.57;;;15.38;;
30874;SDS011;17581;43.222;27.924;2024-02-28T05:23:10;69.05;;;16.73;;
30874;SDS011;17581;43.222;27.924;2024-02-28T05:28:42;54.05;;;15.60;;
30874;SDS011;17581;43.222;27.924;2024-02-28T05:31:23;69.70;;;19.13;;
30874;SDS011;17581;43.222;27.924;2024-02-28T05:36:19;90.38;;;18.10;;
30874;SDS011;17581;43.222;27.924;2024-02-28T05:38:49;85.75;;;19.30;;
30874;SDS011;17581;43.222;27.924;2024-02-28T05:41:15;60.28;;;17.67;;
30874;SDS011;17581;43.222;27.924;2024-02-28T05:43:41;111.13;;;20.15;;
30874;SDS011;17581;43.222;27.924;2024-02-28T05:46:07;47.58;;;15.18;;
30874;SDS011;17581;43.222;27.924;2024-02-28T05:48:32;99.80;;;18.50;;
30874;SDS011;17581;43.222;27.924;2024-02-28T05:50:57;74.03;;;15.50;;
30874;SDS011;17581;43.222;27.924;2024-02-28T05:53:23;64.60;;;13.85;;
30874;SDS011;17581;43.222;27.924;2024-02-28T05:55:52;51.45;;;12.93;;
30874;SDS011;17581;43.222;27.924;2024-02-28T05:58:18;33.50;;;11.98;;
30874;SDS011;17581;43.222;27.924;2024-02-28T06:00:44;60.05;;;13.82;;
30874;SDS011;17581;43.222;27.924;2024-02-28T06:03:09;43.75;;;13.52;;
30874;SDS011;17581;43.222;27.924;2024-02-28T06:05:35;31.77;;;11.15;;
30874;SDS011;17581;43.222;27.924;2024-02-28T06:08:00;37.97;;;12.55;;
30874;SDS011;17581;43.222;27.924;2024-02-28T06:10:26;39.03;;;13.00;;
30874;SDS011;17581;43.222;27.924;2024-02-28T06:12:51;46.55;;;12.55;;
30874;SDS011;17581;43.222;27.924;2024-02-28T06:15:17;103.38;;;17.10;;
30874;SDS011;17581;43.222;27.924;2024-02-28T06:17:42;64.68;;;11.95;;
30874;SDS011;17581;43.222;27.924;2024-02-28T06:20:08;50.25;;;12.43;;
30874;SDS011;17581;43.222;27.924;2024-02-28T06:22:33;47.65;;;10.38;;
30874;SDS011;17581;43.222;27.924;2024-02-28T06:24:59;54.75;;;13.60;;
30874;SDS011;17581;43.222;27.924;2024-02-28T06:27:24;79.72;;;11.23;;
30874;SDS011;17581;43.222;27.924;2024-02-28T06:29:51;35.17;;;9.65;;
30874;SDS011;17581;43.222;27.924;2024-02-28T06:32:17;40.92;;;10.85;;
30874;SDS011;17581;43.222;27.924;2024-02-28T06:34:42;54.42;;;13.35;;
30874;SDS011;17581;43.222;27.924;2024-02-28T06:37:08;89.97;;;13.45;;
30874;SDS011;17581;43.222;27.924;2024-02-28T06:39:33;53.85;;;11.52;;
30874;SDS011;17581;43.222;27.924;2024-02-28T06:41:58;47.17;;;11.00;;
30874;SDS011;17581;43.222;27.924;2024-02-28T06:44:24;34.40;;;10.40;;
30874;SDS011;17581;43.222;27.924;2024-02-28T06:46:51;34.03;;;9.48;;
30874;SDS011;17581;43.222;27.924;2024-02-28T06:49:16;37.90;;;9.30;;
30874;SDS011;17581;43.222;27.924;2024-02-28T06:51:43;55.75;;;12.82;;
30874;SDS011;17581;43.222;27.924;2024-02-28T06:54:09;31.80;;;9.98;;
30874;SDS011;17581;43.222;27.924;2024-02-28T06:56:35;71.00;;;14.82;;
30874;SDS011;17581;43.222;27.924;2024-02-28T06:59:01;44.50;;;10.02;;
30874;SDS011;17581;43.222;27.924;2024-02-28T07:01:27;43.55;;;10.45;;
30874;SDS011;17581;43.222;27.924;2024-02-28T07:03:52;48.47;;;10.85;;
30874;SDS011;17581;43.222;27.924;2024-02-28T07:06:18;46.90;;;10.35;;
30874;SDS011;17581;43.222;27.924;2024-02-28T07:08:43;41.22;;;8.60;;
30874;SDS011;17581;43.222;27.924;2024-02-28T07:11:15;37.63;;;8.38;;
30874;SDS011;17581;43.222;27.924;2024-02-28T07:13:41;39.30;;;9.73;;
30874;SDS011;17581;43.222;27.924;2024-02-28T07:16:06;46.13;;;10.27;;
30874;SDS011;17581;43.222;27.924;2024-02-28T07:18:32;25.42;;;8.30;;
30874;SDS011;17581;43.222;27.924;2024-02-28T07:20:58;51.00;;;10.50;;
30874;SDS011;17581;43.222;27.924;2024-02-28T07:23:24;29.50;;;9.88;;
30874;SDS011;17581;43.222;27.924;2024-02-28T07:25:49;42.25;;;8.70;;
30874;SDS011;17581;43.222;27.924;2024-02-28T07:28:15;35.50;;;10.27;;
30874;SDS011;17581;43.222;27.924;2024-02-28T07:30:41;29.60;;;9.43;;
30874;SDS011;17581;43.222;27.924;2024-02-28T07:33:07;38.47;;;8.45;;
30874;SDS011;17581;43.222;27.924;2024-02-28T07:35:43;48.80;;;10.82;;
30874;SDS011;17581;43.222;27.924;2024-02-28T07:38:11;24.33;;;8.15;;
30874;SDS011;17581;43.222;27.924;2024-02-28T07:40:36;28.48;;;9.27;;
30874;SDS011;17581;43.222;27.924;2024-02-28T07:43:02;24.48;;;8.55;;
30874;SDS011;17581;43.222;27.924;2024-02-28T07:45:27;30.88;;;8.38;;
30874;SDS011;17581;43.222;27.924;2024-02-28T07:47:53;20.25;;;8.10;;
30874;SDS011;17581;43.222;27.924;2024-02-28T07:50:18;36.22;;;7.55;;
30874;SDS011;17581;43.222;27.924;2024-02-28T07:52:43;38.25;;;9.32;;
30874;SDS011;17581;43.222;27.924;2024-02-28T07:55:10;27.45;;;8.93;;
30874;SDS011;17581;43.222;27.924;2024-02-28T07:57:35;31.20;;;8.80;;
30874;SDS011;17581;43.222;27.924;2024-02-28T08:00:01;30.00;;;8.48;;
30874;SDS011;17581;43.222;27.924;2024-02-28T08:02:26;38.13;;;8.73;;
30874;SDS011;17581;43.222;27.924;2024-02-28T08:04:52;46.72;;;9.35;;
30874;SDS011;17581;43.222;27.924;2024-02-28T08:07:17;29.90;;;7.72;;
30874;SDS011;17581;43.222;27.924;2024-02-28T08:09:43;28.85;;;8.15;;
30874;SDS011;17581;43.222;27.924;2024-02-28T08:12:08;28.77;;;8.82;;
30874;SDS011;17581;43.222;27.924;2024-02-28T08:14:34;33.40;;;8.73;;
30874;SDS011;17581;43.222;27.924;2024-02-28T08:16:59;37.28;;;9.40;;
30874;SDS011;17581;43.222;27.924;2024-02-28T08:19:24;49.38;;;8.77;;
30874;SDS011;17581;43.222;27.924;2024-02-28T08:21:50;26.65;;;8.32;;
30874;SDS011;17581;43.222;27.924;2024-02-28T08:24:15;50.10;;;12.63;;
30874;SDS011;17581;43.222;27.924;2024-02-28T08:26:43;60.95;;;9.52;;
30874;SDS011;17581;43.222;27.924;2024-02-28T08:29:09;32.38;;;8.43;;
30874;SDS011;17581;43.222;27.924;2024-02-28T08:31:39;28.05;;;8.85;;
30874;SDS011;17581;43.222;27.924;2024-02-28T08:34:06;49.03;;;10.70;;
30874;SDS011;17581;43.222;27.924;2024-02-28T08:36:31;29.25;;;8.02;;
30874;SDS011;17581;43.222;27.924;2024-02-28T08:38:57;33.63;;;8.43;;
30874;SDS011;17581;43.222;27.924;2024-02-28T08:41:22;36.65;;;8.52;;
30874;SDS011;17581;43.222;27.924;2024-02-28T08:43:48;31.40;;;9.52;;
30874;SDS011;17581;43.222;27.924;2024-02-28T08:46:14;39.25;;;8.85;;
30874;SDS011;17581;43.222;27.924;2024-02-28T08:48:40;30.40;;;8.52;;
30874;SDS011;17581;43.222;27.924;2024-02-28T08:51:07;42.97;;;11.43;;
30874;SDS011;17581;43.222;27.924;2024-02-28T08:53:32;29.80;;;9.68;;
30874;SDS011;17581;43.222;27.924;2024-02-28T08:55:58;37.20;;;11.00;;
30874;SDS011;17581;43.222;27.924;2024-02-28T08:58:24;32.90;;;8.50;;
30874;SDS011;17581;43.222;27.924;2024-02-28T09:00:49;40.78;;;8.70;;
30874;SDS011;17581;43.222;27.924;2024-02-28T09:03:14;38.13;;;8.82;;
30874;SDS011;17581;43.222;27.924;2024-02-28T09:05:40;33.35;;;8.57;;
30874;SDS011;17581;43.222;27.924;2024-02-28T09:08:05;39.95;;;9.07;;
30874;SDS011;17581;43.222;27.924;2024-02-28T09:10:31;54.80;;;11.20;;
30874;SDS011;17581;43.222;27.924;2024-02-28T09:12:59;35.95;;;9.88;;
30874;SDS011;17581;43.222;27.924;2024-02-28T09:15:24;45.95;;;9.27;;
30874;SDS011;17581;43.222;27.924;2024-02-28T09:17:50;33.20;;;8.73;;
30874;SDS011;17581;43.222;27.924;2024-02-28T09:20:15;19.80;;;7.97;;
30874;SDS011;17581;43.222;27.924;2024-02-28T09:22:42;34.97;;;10.25;;
30874;SDS011;17581;43.222;27.924;2024-02-28T09:25:07;28.75;;;9.63;;
30874;SDS011;17581;43.222;27.924;2024-02-28T09:27:34;34.80;;;9.82;;
30874;SDS011;17581;43.222;27.924;2024-02-28T09:30:00;22.98;;;8.23;;
30874;SDS011;17581;43.222;27.924;2024-02-28T09:33:01;29.60;;;8.05;;
30874;SDS011;17581;43.222;27.924;2024-02-28T09:35:38;35.97;;;7.70;;
30874;SDS011;17581;43.222;27.924;2024-02-28T09:38:04;39.67;;;9.88;;
30874;SDS011;17581;43.222;27.924;2024-02-28T09:40:30;38.63;;;9.48;;
30874;SDS011;17581;43.222;27.924;2024-02-28T09:43:02;57.03;;;13.02;;
30874;SDS011;17581;43.222;27.924;2024-02-28T09:45:29;31.52;;;8.88;;
30874;SDS011;17581;43.222;27.924;2024-02-28T09:47:58;37.22;;;9.45;;
30874;SDS011;17581;43.222;27.924;2024-02-28T09:50:28;41.85;;;9.38;;
30874;SDS011;17581;43.222;27.924;2024-02-28T09:52:54;31.42;;;9.38;;
30874;SDS011;17581;43.222;27.924;2024-02-28T09:55:20;25.80;;;8.93;;
30874;SDS011;17581;43.222;27.924;2024-02-28T09:57:48;33.03;;;8.90;;
30874;SDS011;17581;43.222;27.924;2024-02-28T10:00:16;30.58;;;8.18;;
30874;SDS011;17581;43.222;27.924;2024-02-28T10:02:46;47.05;;;11.55;;
30874;SDS011;17581;43.222;27.924;2024-02-28T10:05:13;31.15;;;8.25;;
30874;SDS011;17581;43.222;27.924;2024-02-28T10:07:40;36.88;;;9.57;;
30874;SDS011;17581;43.222;27.924;2024-02-28T10:10:06;27.05;;;8.25;;
30874;SDS011;17581;43.222;27.924;2024-02-28T10:12:33;30.63;;;8.43;;
30874;SDS011;17581;43.222;27.924;2024-02-28T10:15:02;28.52;;;10.00;;
30874;SDS011;17581;43.222;27.924;2024-02-28T10:17:28;28.40;;;8.48;;
30874;SDS011;17581;43.222;27.924;2024-02-28T10:19:53;31.33;;;9.23;;
30874;SDS011;17581;43.222;27.924;2024-02-28T10:22:19;31.52;;;10.00;;
30874;SDS011;17581;43.222;27.924;2024-02-28T10:24:44;39.85;;;10.55;;
30874;SDS011;17581;43.222;27.924;2024-02-28T10:27:09;35.17;;;9.80;;
30874;SDS011;17581;43.222;27.924;2024-02-28T10:29:35;26.85;;;8.00;;
30874;SDS011;17581;43.222;27.924;2024-02-28T10:32:01;32.47;;;8.82;;
30874;SDS011;17581;43.222;27.924;2024-02-28T10:34:28;41.05;;;9.05;;
30874;SDS011;17581;43.222;27.924;2024-02-28T10:36:54;26.92;;;8.77;;
30874;SDS011;17581;43.222;27.924;2024-02-28T10:39:23;36.50;;;11.50;;
30874;SDS011;17581;43.222;27.924;2024-02-28T10:41:49;32.63;;;9.32;;
30874;SDS011;17581;43.222;27.924;2024-02-28T10:44:17;26.65;;;9.98;;
30874;SDS011;17581;43.222;27.924;2024-02-28T10:46:43;38.78;;;10.25;;
30874;SDS011;17581;43.222;27.924;2024-02-28T10:49:09;33.55;;;8.57;;
30874;SDS011;17581;43.222;27.924;2024-02-28T10:51:36;27.60;;;9.30;;
30874;SDS011;17581;43.222;27.924;2024-02-28T10:54:08;27.77;;;9.70;;
30874;SDS011;17581;43.222;27.924;2024-02-28T10:56:38;46.42;;;11.38;;
30874;SDS011;17581;43.222;27.924;2024-02-28T10:59:07;32.10;;;8.93;;
30874;SDS011;17581;43.222;27.924;2024-02-28T11:01:41;30.25;;;9.80;;
30874;SDS011;17581;43.222;27.924;2024-02-28T11:04:09;25.80;;;9.68;;
30874;SDS011;17581;43.222;27.924;2024-02-28T11:06:46;28.77;;;9.32;;
30874;SDS011;17581;43.222;27.924;2024-02-28T11:09:18;35.42;;;10.57;;
30874;SDS011;17581;43.222;27.924;2024-02-28T11:11:44;61.83;;;12.27;;
30874;SDS011;17581;43.222;27.924;2024-02-28T11:14:14;40.38;;;11.35;;
30874;SDS011;17581;43.222;27.924;2024-02-28T11:16:41;45.65;;;11.82;;
30874;SDS011;17581;43.222;27.924;2024-02-28T11:19:20;52.42;;;12.98;;
30874;SDS011;17581;43.222;27.924;2024-02-28T11:21:53;44.08;;;13.30;;
30874;SDS011;17581;43.222;27.924;2024-02-28T11:24:22;28.10;;;9.98;;
30874;SDS011;17581;43.222;27.924;2024-02-28T11:26:49;32.38;;;10.00;;
30874;SDS011;17581;43.222;27.924;2024-02-28T11:29:16;28.70;;;10.10;;
30874;SDS011;17581;43.222;27.924;2024-02-28T11:31:41;41.35;;;11.13;;
30874;SDS011;17581;43.222;27.924;2024-02-28T11:34:06;29.08;;;9.25;;
30874;SDS011;17581;43.222;27.924;2024-02-28T11:36:33;38.47;;;11.15;;
30874;SDS011;17581;43.222;27.924;2024-02-28T11:38:59;52.08;;;11.85;;
30874;SDS011;17581;43.222;27.924;2024-02-28T11:41:28;39.58;;;11.40;;
30874;SDS011;17581;43.222;27.924;2024-02-28T11:43:54;31.77;;;8.77;;
30874;SDS011;17581;43.222;27.924;2024-02-28T11:46:19;36.67;;;10.00;;
30874;SDS011;17581;43.222;27.924;2024-02-28T11:48:45;30.13;;;9.82;;
30874;SDS011;17581;43.222;27.924;2024-02-28T11:51:10;42.30;;;9.30;;
30874;SDS011;17581;43.222;27.924;2024-02-28T11:53:36;41.65;;;10.32;;
30874;SDS011;17581;43.222;27.924;2024-02-28T11:56:01;32.97;;;10.95;;
30874;SDS011;17581;43.222;27.924;2024-02-28T11:58:29;44.08;;;11.60;;
30874;SDS011;17581;43.222;27.924;2024-02-28T12:00:55;46.17;;;11.60;;
30874;SDS011;17581;43.222;27.924;2024-02-28T12:03:21;71.88;;;12.00;;
30874;SDS011;17581;43.222;27.924;2024-02-28T12:05:49;40.03;;;11.02;;
30874;SDS011;17581;43.222;27.924;2024-02-28T12:08:18;33.05;;;10.73;;
30874;SDS011;17581;43.222;27.924;2024-02-28T12:10:45;39.40;;;12.48;;
30874;SDS011;17581;43.222;27.924;2024-02-28T12:13:11;41.67;;;11.32;;
30874;SDS011;17581;43.222;27.924;2024-02-28T12:15:38;84.68;;;13.55;;
30874;SDS011;17581;43.222;27.924;2024-02-28T12:18:09;51.55;;;11.57;;
30874;SDS011;17581;43.222;27.924;2024-02-28T12:20:35;43.92;;;13.00;;
30874;SDS011;17581;43.222;27.924;2024-02-28T12:23:02;42.28;;;11.82;;
30874;SDS011;17581;43.222;27.924;2024-02-28T12:25:28;47.55;;;13.07;;
30874;SDS011;17581;43.222;27.924;2024-02-28T12:27:54;48.35;;;12.02;;
30874;SDS011;17581;43.222;27.924;2024-02-28T12:30:19;28.42;;;11.02;;
30874;SDS011;17581;43.222;27.924;2024-02-28T12:32:45;38.40;;;11.90;;
30874;SDS011;17581;43.222;27.924;2024-02-28T12:35:11;44.47;;;12.60;;
30874;SDS011;17581;43.222;27.924;2024-02-28T12:37:36;33.20;;;11.73;;
30874;SDS011;17581;43.222;27.924;2024-02-28T12:40:03;35.13;;;10.43;;
30874;SDS011;17581;43.222;27.924;2024-02-28T12:42:30;38.17;;;11.35;;
30874;SDS011;17581;43.222;27.924;2024-02-28T12:44:55;34.60;;;10.40;;
30874;SDS011;17581;43.222;27.924;2024-02-28T12:47:21;50.83;;;14.35;;
30874;SDS011;17581;43.222;27.924;2024-02-28T12:49:46;39.47;;;12.70;;
30874;SDS011;17581;43.222;27.924;2024-02-28T12:52:12;58.38;;;12.30;;
30874;SDS011;17581;43.222;27.924;2024-02-28T12:54:37;38.35;;;11.25;;
30874;SDS011;17581;43.222;27.924;2024-02-28T12:57:02;33.92;;;11.57;;
30874;SDS011;17581;43.222;27.924;2024-02-28T12:59:31;62.10;;;12.30;;
30874;SDS011;17581;43.222;27.924;2024-02-28T13:01:58;39.22;;;11.55;;
30874;SDS011;17581;43.222;27.924;2024-02-28T13:04:23;40.33;;;12.43;;
30874;SDS011;17581;43.222;27.924;2024-02-28T13:06:50;33.85;;;11.35;;
30874;SDS011;17581;43.222;27.924;2024-02-28T13:09:18;41.08;;;11.02;;
30874;SDS011;17581;43.222;27.924;2024-02-28T13:11:43;39.08;;;12.13;;
30874;SDS011;17581;43.222;27.924;2024-02-28T13:14:09;58.53;;;27.73;;
30874;SDS011;17581;43.222;27.924;2024-02-28T13:16:35;40.00;;;10.98;;
30874;SDS011;17581;43.222;27.924;2024-02-28T13:19:01;33.15;;;11.75;;
30874;SDS011;17581;43.222;27.924;2024-02-28T13:21:26;48.78;;;11.43;;
30874;SDS011;17581;43.222;27.924;2024-02-28T13:23:52;44.20;;;11.48;;
30874;SDS011;17581;43.222;27.924;2024-02-28T13:26:17;35.90;;;12.43;;
30874;SDS011;17581;43.222;27.924;2024-02-28T13:28:45;69.90;;;18.73;;
30874;SDS011;17581;43.222;27.924;2024-02-28T13:31:11;30.52;;;11.10;;
30874;SDS011;17581;43.222;27.924;2024-02-28T13:33:37;75.10;;;14.23;;
30874;SDS011;17581;43.222;27.924;2024-02-28T13:36:03;35.40;;;11.98;;
30874;SDS011;17581;43.222;27.924;2024-02-28T13:38:29;51.28;;;14.30;;
30874;SDS011;17581;43.222;27.924;2024-02-28T13:40:55;41.08;;;12.32;;
30874;SDS011;17581;43.222;27.924;2024-02-28T13:43:21;38.67;;;10.15;;
30874;SDS011;17581;43.222;27.924;2024-02-28T13:45:47;23.58;;;10.15;;
30874;SDS011;17581;43.222;27.924;2024-02-28T13:48:17;35.55;;;11.25;;
30874;SDS011;17581;43.222;27.924;2024-02-28T13:50:45;38.90;;;12.48;;
30874;SDS011;17581;43.222;27.924;2024-02-28T13:53:11;55.95;;;13.90;;
30874;SDS011;17581;43.222;27.924;2024-02-28T13:55:37;62.05;;;14.75;;
30874;SDS011;17581;43.222;27.924;2024-02-28T13:58:03;56.15;;;13.55;;
30874;SDS011;17581;43.222;27.924;2024-02-28T14:00:29;30.75;;;11.88;;
30874;SDS011;17581;43.222;27.924;2024-02-28T14:02:55;47.88;;;12.63;;
30874;SDS011;17581;43.222;27.924;2024-02-28T14:05:20;45.20;;;13.48;;
30874;SDS011;17581;43.222;27.924;2024-02-28T14:07:46;48.08;;;11.90;;
30874;SDS011;17581;43.222;27.924;2024-02-28T14:10:11;35.95;;;13.82;;
30874;SDS011;17581;43.222;27.924;2024-02-28T14:12:37;39.70;;;11.63;;
30874;SDS011;17581;43.222;27.924;2024-02-28T14:15:03;37.45;;;12.15;;